Airfield :
LOGIN :

Register | Disclaimer

   EN    FR    IT 

 










Legend :    VFR   Marginal VFR   IFR   Intensive IFR   Very Intensive IFR
Visi :
Ceiling :
>= 8 km
>= 3000ft
5 to 8 km
1000 to 3000 ft
1500m to 5 km
500 to 1000 ft
800 to 1500m
200 to 500 ft
< 800m
< 200 ft
Symbols :   Thunderstorms  Fog  Heavy snow  Heavy precipitations  Wind > 20 kt
SIGMETs :     Misc.  Thunderstorms  Icing  Turbulence  Mountain Waves  Volcanic Ashes






- Airport Elevation : 306 ft
- IATA code : EMA


EGNX - Nottingham East Midlands

CURRENT METAR :
  • 260120Z 16010KT 9999 BKN006 OVC029 06/06 Q1010

EXPIRED METARs :
  • 260050Z 18008KT 9999 OVC005 06/06 Q1011
  • 260020Z 17009KT 7000 OVC009 06/05 Q1011
  • 252350Z 18009KT 9999 BKN007 06/05 Q1012
  • 252320Z 18009KT 9000 FEW004 BKN008 06/05 Q1012
  • 252250Z 18011KT 7000 SCT004 BKN010 06/05 Q1012

TAF TAF EGNX
Valid from the 26 at 00:00 until the 27 at 00:00 UTC


252301Z 2600/2624 18010KT 4000 BR BKN010
TEMPO 2600/2609 5000 BKN003
PROB30 2600/2606 9999 NSW
BECMG 2606/2609 9999 NSW SCT030
TEMPO 2612/2616 18015G25KT 6000 RA BKN009
BECMG 2615/2618 27005KT
BECMG 2621/2624 19010KT
ATIS : +44 1332 852 852 (ext 3201)



MET'MAP, your aeronautical weather chart ! - Copyright ORBIFLY December 2007 - Disclaimer

ORBIFLY MET'MAP TEAM :

Programming & Development : Alexandra Zaïnal
Concept & original design : Baudouin d'Aumeries
Assistance for programming : Marc-Olivier Méhu
Technical & hardware support : Manuel Goepfert

Contact : metmap@orbifly.com




SOURCES & CREDITS :

   NOAA